createdAt,value
2022-11-26T00:03:56.874Z,6.00
2022-11-26T00:08:01.133Z,3.40
2022-11-26T00:12:16.513Z,3.38
2022-11-26T00:16:18.729Z,2.55
2022-11-26T00:20:24.197Z,7.50
2022-11-26T00:24:28.027Z,3.17
2022-11-26T00:28:38.115Z,2.38
2022-11-26T00:32:39.753Z,2.70
2022-11-26T00:36:43.986Z,3.78
2022-11-26T00:40:46.014Z,6.18
2022-11-26T00:44:47.684Z,5.50
2022-11-26T00:48:49.881Z,5.25
2022-11-26T00:52:54.754Z,2.78
2022-11-26T00:56:56.415Z,3.72
2022-11-26T01:01:00.091Z,2.67
2022-11-26T01:05:01.777Z,4.47
2022-11-26T01:09:07.750Z,2.38
2022-11-26T01:13:10.939Z,4.70
2022-11-26T01:17:12.619Z,4.70
2022-11-26T01:21:14.692Z,4.80
2022-11-26T01:25:16.504Z,3.58
2022-11-26T01:29:19.924Z,3.75
2022-11-26T01:33:21.533Z,3.80
2022-11-26T01:37:23.285Z,3.83
2022-11-26T01:41:47.043Z,3.40
2022-11-26T01:45:48.742Z,2.90
2022-11-26T01:50:27.805Z,5.20
2022-11-26T01:54:30.196Z,3.00
2022-11-26T01:58:40.165Z,3.47
2022-11-26T02:02:42.422Z,4.10
2022-11-26T02:06:46.671Z,2.90
2022-11-26T02:10:51.012Z,3.53
2022-11-26T02:14:52.729Z,3.83
2022-11-26T02:19:25.047Z,3.15
2022-11-26T02:23:55.819Z,2.85
2022-11-26T02:28:35.289Z,5.10
2022-11-26T02:33:13.040Z,2.33
2022-11-26T02:37:20.317Z,3.60
2022-11-26T02:41:21.939Z,2.80
2022-11-26T02:45:31.060Z,3.88
2022-11-26T02:49:34.555Z,4.05
2022-11-26T02:53:38.837Z,5.30
2022-11-26T02:57:51.896Z,3.13
2022-11-26T03:02:24.748Z,4.75
2022-11-26T03:06:29.998Z,3.08
2022-11-26T03:10:32.116Z,5.67
2022-11-26T03:14:33.863Z,3.25
2022-11-26T03:18:35.452Z,2.60
2022-11-26T03:22:37.327Z,2.30
2022-11-26T03:26:39.065Z,4.13
2022-11-26T03:30:40.775Z,4.97
2022-11-26T03:34:43.015Z,2.70
2022-11-26T03:38:44.608Z,4.15
2022-11-26T03:42:46.263Z,4.97
2022-11-26T03:46:47.886Z,4.95
2022-11-26T03:50:49.684Z,3.03
2022-11-26T03:54:51.713Z,4.10
2022-11-26T03:58:53.367Z,6.55
2022-11-26T04:02:55.198Z,3.35
2022-11-26T04:06:57.335Z,4.25
2022-11-26T04:10:59.241Z,4.55
2022-11-26T04:15:00.960Z,2.33
2022-11-26T04:19:02.592Z,3.42
2022-11-26T04:23:04.280Z,3.35
2022-11-26T04:27:06.024Z,4.53
2022-11-26T04:31:07.712Z,6.13
2022-11-26T04:35:09.622Z,2.97
2022-11-26T04:39:12.555Z,3.95
2022-11-26T04:43:14.348Z,2.55
2022-11-26T04:47:16.016Z,2.90
2022-11-26T04:51:17.660Z,4.88
2022-11-26T04:55:19.424Z,3.60
2022-11-26T04:59:21.109Z,4.50
2022-11-26T05:03:22.931Z,4.50
2022-11-26T05:07:24.655Z,4.18
2022-11-26T05:11:26.562Z,5.65
2022-11-26T05:15:28.208Z,5.10
2022-11-26T05:19:29.829Z,5.97
2022-11-26T05:23:31.422Z,3.15
2022-11-26T05:27:33.147Z,3.38
2022-11-26T05:31:34.784Z,3.38
2022-11-26T05:35:37.982Z,2.45
2022-11-26T05:39:39.580Z,4.03
2022-11-26T05:43:41.195Z,3.35
2022-11-26T05:47:43.284Z,4.35
2022-11-26T05:51:44.974Z,3.60
2022-11-26T05:55:46.915Z,4.78
2022-11-26T05:59:49.217Z,3.65
2022-11-26T06:03:50.971Z,4.68
2022-11-26T06:07:52.733Z,2.88
2022-11-26T06:11:54.453Z,3.67
2022-11-26T06:15:56.524Z,2.72
2022-11-26T06:19:58.340Z,2.92
2022-11-26T06:24:00.079Z,3.10
2022-11-26T06:28:02.015Z,5.13
2022-11-26T06:32:03.802Z,4.55
2022-11-26T06:36:06.264Z,4.10
2022-11-26T06:40:09.183Z,4.38
2022-11-26T06:44:10.856Z,3.42
2022-11-26T06:48:12.605Z,4.53
2022-11-26T06:52:14.458Z,3.42
2022-11-26T06:56:19.123Z,3.08
2022-11-26T07:00:21.931Z,2.30
2022-11-26T07:04:23.742Z,4.47
2022-11-26T07:08:26.025Z,5.07
2022-11-26T07:12:27.888Z,2.83
2022-11-26T07:16:30.058Z,2.40
2022-11-26T07:20:31.683Z,5.05
2022-11-26T07:24:33.338Z,3.33
2022-11-26T07:28:35.684Z,4.65
2022-11-26T07:32:37.383Z,2.58
2022-11-26T07:36:43.021Z,3.00
2022-11-26T07:40:44.686Z,2.47
2022-11-26T07:44:49.069Z,4.38
2022-11-26T07:48:51.204Z,4.50
2022-11-26T07:52:52.934Z,3.70
2022-11-26T07:56:54.628Z,3.08
2022-11-26T08:00:56.231Z,3.03
2022-11-26T08:04:57.792Z,3.22
2022-11-26T08:09:02.112Z,2.22
2022-11-26T08:13:04.270Z,4.22
2022-11-26T08:17:05.902Z,3.85
2022-11-26T08:21:07.864Z,5.70
2022-11-26T08:25:09.929Z,2.90
2022-11-26T08:29:13.011Z,3.03
2022-11-26T08:33:15.681Z,2.50
2022-11-26T08:37:17.322Z,3.58
2022-11-26T08:41:19.047Z,3.08
2022-11-26T08:45:20.650Z,4.45
2022-11-26T08:49:22.276Z,3.10
2022-11-26T08:53:23.911Z,2.78
2022-11-26T08:57:25.679Z,2.80
2022-11-26T09:01:29.566Z,2.97
2022-11-26T09:05:31.882Z,3.15
2022-11-26T09:09:33.800Z,3.78
2022-11-26T09:13:35.410Z,5.03
2022-11-26T09:17:37.188Z,4.40
2022-11-26T09:21:39.004Z,2.05
2022-11-26T09:25:41.758Z,2.00
2022-11-26T09:29:43.501Z,3.78
2022-11-26T09:33:45.896Z,3.30
2022-11-26T09:37:51.620Z,2.42
2022-11-26T09:42:07.629Z,7.88
2022-11-26T09:46:12.165Z,6.65
2022-11-26T09:50:13.870Z,2.40
2022-11-26T09:54:22.577Z,3.15
2022-11-26T09:58:40.025Z,2.90
2022-11-26T10:02:41.683Z,4.07
2022-11-26T10:06:55.147Z,5.93
2022-11-26T10:11:14.463Z,3.38
2022-11-26T10:15:26.697Z,3.17
2022-11-26T10:19:57.514Z,3.97
2022-11-26T10:24:14.063Z,2.85
2022-11-26T10:28:30.683Z,2.75
2022-11-26T10:32:43.892Z,4.47
2022-11-26T10:36:47.194Z,3.72
2022-11-26T10:40:48.820Z,5.03
2022-11-26T10:44:54.655Z,2.55
2022-11-26T10:49:16.894Z,3.60
2022-11-26T10:53:22.279Z,4.47
2022-11-26T10:57:24.058Z,5.27
2022-11-26T11:01:26.807Z,4.65
2022-11-26T11:05:29.279Z,4.38
2022-11-26T11:09:37.382Z,7.15
2022-11-26T11:13:44.307Z,4.85
2022-11-26T11:17:53.370Z,6.68
2022-11-26T11:21:55.175Z,5.32
2022-11-26T11:25:58.597Z,4.80
2022-11-26T11:30:02.050Z,6.90
2022-11-26T11:34:21.327Z,9.43
2022-11-26T11:38:25.959Z,3.60
2022-11-26T11:42:32.267Z,4.88
2022-11-26T11:47:06.344Z,6.05
2022-11-26T11:51:35.959Z,5.25
2022-11-26T11:56:08.297Z,4.30
2022-11-26T12:00:24.148Z,4.80
2022-11-26T12:04:44.557Z,11.35
2022-11-26T12:09:30.428Z,5.28
2022-11-26T12:13:39.999Z,3.42
2022-11-26T12:18:06.713Z,5.63
2022-11-26T12:26:24.771Z,4.28
2022-11-26T12:30:39.905Z,4.55
2022-11-26T12:34:49.770Z,5.07
2022-11-26T12:38:54.782Z,4.80
2022-11-26T12:43:09.679Z,4.70
2022-11-26T12:47:38.141Z,5.63
2022-11-26T12:51:57.648Z,6.07
2022-11-26T12:56:09.421Z,6.10
2022-11-26T13:00:26.117Z,11.48
2022-11-26T13:04:37.723Z,14.32
2022-11-26T13:08:54.066Z,16.73
2022-11-26T13:13:07.009Z,17.27
2022-11-26T13:17:14.209Z,16.83
2022-11-26T13:21:37.413Z,15.63
2022-11-26T13:26:03.820Z,18.85
2022-11-26T13:30:24.011Z,18.60
2022-11-26T13:34:57.941Z,18.20
2022-11-26T13:39:14.665Z,17.80
2022-11-26T13:43:49.425Z,20.77
2022-11-26T13:47:56.786Z,17.63
2022-11-26T13:52:11.194Z,17.67
2022-11-26T13:56:13.811Z,19.83
2022-11-26T14:00:44.393Z,15.52
2022-11-26T14:04:49.029Z,18.63
2022-11-26T14:08:54.210Z,17.25
2022-11-26T14:13:01.862Z,16.33
2022-11-26T14:17:15.953Z,16.52
2022-11-26T14:21:21.509Z,17.13
2022-11-26T14:25:49.308Z,20.42
2022-11-26T14:30:02.416Z,17.98
2022-11-26T14:34:33.648Z,20.27
2022-11-26T14:38:35.320Z,18.98
2022-11-26T14:42:41.489Z,18.05
2022-11-26T14:50:46.281Z,16.08
2022-11-26T14:54:51.746Z,16.70
2022-11-26T14:59:01.633Z,23.02
2022-11-26T15:56:57.912Z,147.18
2022-11-26T16:03:03.746Z,103.53
2022-11-26T16:07:19.846Z,89.85
2022-11-26T16:11:23.128Z,84.88
2022-11-26T16:15:26.703Z,82.10
2022-11-26T16:19:30.278Z,63.47
2022-11-26T16:23:32.058Z,59.08
2022-11-26T16:27:34.404Z,59.63
2022-11-26T16:31:36.396Z,55.55
2022-11-26T16:35:46.717Z,46.83
2022-11-26T16:39:50.445Z,48.70
2022-11-26T16:43:52.265Z,43.35
2022-11-26T16:47:55.130Z,38.60
2022-11-26T16:51:56.721Z,36.40
2022-11-26T16:55:58.416Z,30.83
2022-11-26T17:00:03.655Z,30.83
2022-11-26T17:04:05.435Z,30.90
2022-11-26T17:08:11.923Z,36.30
2022-11-26T17:12:18.935Z,45.67
2022-11-26T17:16:22.713Z,33.33
2022-11-26T17:20:25.595Z,28.25
2022-11-26T17:24:31.349Z,25.42
2022-11-26T17:32:35.082Z,27.90
2022-11-26T17:36:37.236Z,16.77
2022-11-26T17:40:38.869Z,21.48
2022-11-26T17:44:40.871Z,16.60
2022-11-26T17:48:42.810Z,21.85
2022-11-26T17:52:44.610Z,17.23
2022-11-26T17:56:46.266Z,19.65
2022-11-26T18:00:47.981Z,16.88
2022-11-26T18:04:49.655Z,26.10
2022-11-26T18:08:51.299Z,15.80
2022-11-26T18:12:54.062Z,12.63
2022-11-26T18:16:55.949Z,12.13
2022-11-26T18:20:57.757Z,22.63
2022-11-26T18:24:59.847Z,14.90
2022-11-26T18:29:02.434Z,11.43
2022-11-26T18:33:04.114Z,14.25
2022-11-26T18:37:05.979Z,12.07
2022-11-26T18:41:08.257Z,15.52
2022-11-26T18:45:13.301Z,13.80
2022-11-26T18:49:15.287Z,13.10
2022-11-26T18:53:16.912Z,14.13
2022-11-26T18:57:18.522Z,12.13
2022-11-26T19:01:28.895Z,15.77
2022-11-26T19:05:30.500Z,12.68
2022-11-26T19:09:32.154Z,9.45
2022-11-26T19:13:33.729Z,9.68
2022-11-26T19:17:35.539Z,10.68
2022-11-26T19:21:37.325Z,8.82
2022-11-26T19:25:39.002Z,10.45
2022-11-26T19:29:40.796Z,10.27
2022-11-26T19:33:43.921Z,9.18
2022-11-26T19:37:45.995Z,7.95
2022-11-26T19:41:47.567Z,9.68
2022-11-26T19:45:49.253Z,11.90
2022-11-26T19:49:50.904Z,18.77
2022-11-26T19:53:54.882Z,9.90
2022-11-26T19:57:56.714Z,12.48
2022-11-26T20:01:58.431Z,15.10
2022-11-26T20:06:06.021Z,16.63
2022-11-26T20:10:08.271Z,12.98
2022-11-26T20:14:10.602Z,14.35
2022-11-26T20:18:13.080Z,18.20
2022-11-26T20:22:14.690Z,18.35
2022-11-26T20:26:22.670Z,18.10
2022-11-26T20:30:25.493Z,19.40
2022-11-26T20:34:27.783Z,16.60
2022-11-26T20:38:29.404Z,20.05
2022-11-26T20:42:32.651Z,25.55
2022-11-26T20:46:34.360Z,23.67
2022-11-26T20:50:38.005Z,23.40
2022-11-26T20:54:39.688Z,21.85
2022-11-26T20:58:41.887Z,22.23
2022-11-26T21:02:47.518Z,22.42
2022-11-26T21:06:49.202Z,18.77
2022-11-26T21:10:50.945Z,22.27
2022-11-26T21:14:52.729Z,27.38
2022-11-26T21:18:55.168Z,22.33
2022-11-26T21:22:56.837Z,25.13
2022-11-26T21:26:58.475Z,23.35
2022-11-26T21:31:27.623Z,25.63
2022-11-26T21:35:29.972Z,21.02
2022-11-26T21:39:31.797Z,24.13
2022-11-26T21:43:33.573Z,22.75
2022-11-26T21:47:36.423Z,24.02
2022-11-26T21:51:38.239Z,26.88
2022-11-26T21:55:40.016Z,20.70
2022-11-26T21:59:42.009Z,27.23
2022-11-26T22:03:46.382Z,25.27
2022-11-26T22:07:48.260Z,19.77
2022-11-26T22:11:50.408Z,23.75
2022-11-26T22:15:52.220Z,26.35
2022-11-26T22:19:53.833Z,25.38
2022-11-26T22:23:56.508Z,25.42
2022-11-26T22:27:58.186Z,24.85
2022-11-26T22:31:59.852Z,26.17
2022-11-26T22:36:01.578Z,22.73
2022-11-26T22:40:03.819Z,22.90
2022-11-26T22:44:05.469Z,23.98
2022-11-26T22:48:07.090Z,23.25
2022-11-26T22:52:08.727Z,28.20
2022-11-26T22:56:10.589Z,21.27
2022-11-26T23:00:34.587Z,29.08
2022-11-26T23:04:36.202Z,20.65
2022-11-26T23:08:39.328Z,20.70
2022-11-26T23:12:40.925Z,22.00
2022-11-26T23:16:43.343Z,21.05
2022-11-26T23:20:45.101Z,19.67
2022-11-26T23:24:46.731Z,21.95
2022-11-26T23:28:48.347Z,23.30
2022-11-26T23:32:49.979Z,23.08
2022-11-26T23:36:51.746Z,22.67
2022-11-26T23:41:02.529Z,20.02
2022-11-26T23:45:04.822Z,25.88
2022-11-26T23:49:09.385Z,22.45
2022-11-26T23:53:11.017Z,23.80
2022-11-26T23:57:15.129Z,19.05
